Terminal Aerodrome Forecast
Issued by NWS

Home | Current Version | Previous Version | Graphics & Text | Print | Product List | Glossary On
Versions: 1 2 3 4 5 6 7 8 9 10 11 12 13 14 15 16 17 18 19
000
FTUS43 KMPX 160520
TAFRWF
TAF
KRWF 160520Z 1606/1706 15004KT P6SM OVC100
     FM161600 06004KT P6SM BKN110
     FM170200 04004KT P6SM OVC030=

USA.gov is the U.S. government's official web portal to all federal, state and local government web resources and services.